ROMMA est une association bénévole à but non lucratif. Votre soutien est indispensable : ADHERER à ROMMA ou FAIRE un DON

Crempigny - (74, Haute-Savoie)

Albanais-Montagne des Princes (500 m)   Longitude: 05° 54' 5" E   Latitude: 45° 57' 0" N Station partenaire n°10
 

Détail journalier du     <<     >>

Température Precipitation Humidité Pression Vent Dir Rafale Dir. rafale Ensol. 20 cm au dessus du sol
Heure (°C) (mm) (%) (hPa) (km/h) (km/h) (min) (°C)
01:00 0.509610063N8N00.6
02:00 2.80.89410068NO16ONO02.2
03:00 0.40.49510063SSO8NO00.0
04:00 0.909710063NNE8NNE00.6
05:00 0.809710062NNE6NNE0-0.6
06:00 0.409710061NNE6NNE0-0.6
07:00 0.309710072NNE5NNE0-0.6
08:00 0.409810073NNO6NNE0-0.6
09:00 0.609810081NNO3NNO00.0
10:00 2.309710092NNO6SE558.9
11:00 3.409610092SE5SE6010.6
12:00 4.808810095SSO13S6011.7
13:00 6.308310095S13SSO6011.1
14:00 6.607010084ESE11S5510.0
15:00 6.707210087O16O608.3
16:00 6.407310086O15O556.7
17:00 4.408210095NO10ONO03.3
18:00 3.708510095NO10NO02.8
19:00 2.908510095NO8NO02.2
20:00 2.508810094NO6NO01.7
21:00 1.609210083NO6NO00.6
22:00 1.609310084NO6NO0
23:00 0.909410073NO8NO00.0
minuit -0.509410071NO6SSE0-1.1

Graphique du 13-11-2019

 

Serveur OMMA